Time;durP1;ratioP1;P1;durP2;ratioP2;P2;SDS_P1;SDS_P2;PMS_P1;PMS_P2;Temp;Humidity;BMP_temperature;BMP_pressure;BME280_temperature;BME280_humidity;BME280_pressure;Samples;Min_cycle;Max_cycle;Signal;HPM_P1;HPM_P2
2022/03/16 00:00:20;;;;;;;16.90;11.93;;;7.60;99.90;;;;;;4948779;28;20220;-77
2022/03/16 00:02:49;;;;;;;17.07;12.13;;;7.60;99.90;;;;;;4955156;29;20212;-76
2022/03/16 00:05:18;;;;;;;18.00;12.07;;;7.60;99.90;;;;;;4955842;28;20231;-73
2022/03/16 00:07:47;;;;;;;18.03;12.47;;;7.70;99.90;;;;;;4955291;28;20680;-74
2022/03/16 00:10:15;;;;;;;24.53;13.37;;;7.60;99.90;;;;;;4961417;28;20216;-77
2022/03/16 00:12:44;;;;;;;17.10;13.47;;;7.60;99.90;;;;;;4959594;29;20685;-76
2022/03/16 00:15:12;;;;;;;17.07;13.37;;;7.60;99.90;;;;;;4969878;29;20295;-76
2022/03/16 00:17:40;;;;;;;19.93;13.33;;;7.60;99.90;;;;;;4970325;28;20203;-74
2022/03/16 00:20:10;;;;;;;18.83;13.60;;;7.60;99.90;;;;;;4970457;28;20235;-77
2022/03/16 00:22:41;;;;;;;16.93;14.43;;;7.60;99.90;;;;;;4970229;28;20208;-77
2022/03/16 00:25:11;;;;;;;16.60;14.60;;;7.60;99.90;;;;;;4962670;28;20728;-73
2022/03/16 00:27:40;;;;;;;20.30;15.10;;;7.60;99.90;;;;;;4969613;28;20208;-74
2022/03/16 00:30:09;;;;;;;22.33;16.23;;;7.60;99.90;;;;;;4968973;28;20215;-75
2022/03/16 00:32:37;;;;;;;21.20;15.83;;;7.60;99.90;;;;;;4961582;28;20238;-76
2022/03/16 00:35:08;;;;;;;18.77;16.47;;;7.60;99.90;;;;;;4969601;28;20227;-76
2022/03/16 00:37:36;;;;;;;20.67;17.47;;;7.60;99.90;;;;;;4963400;28;20231;-77
2022/03/16 00:40:05;;;;;;;20.17;18.07;;;7.60;99.90;;;;;;4960604;28;20326;-72
2022/03/16 00:42:35;;;;;;;19.43;17.00;;;7.60;99.90;;;;;;4957102;28;20243;-77
2022/03/16 00:45:03;;;;;;;22.63;19.17;;;7.60;99.90;;;;;;4953842;28;20384;-79
2022/03/16 00:47:31;;;;;;;20.80;18.40;;;7.60;99.90;;;;;;4953692;28;20256;-77
2022/03/16 00:49:59;;;;;;;22.30;19.07;;;7.60;99.90;;;;;;4953698;28;20338;-74
2022/03/16 00:52:29;;;;;;;22.53;20.13;;;7.60;99.90;;;;;;4953910;28;20211;-73
2022/03/16 00:54:58;;;;;;;22.70;20.37;;;7.60;99.90;;;;;;4954137;28;20254;-77
2022/03/16 00:57:26;;;;;;;22.50;20.10;;;7.60;99.90;;;;;;4952526;28;20294;-77
2022/03/16 00:59:55;;;;;;;23.80;21.40;;;7.60;99.90;;;;;;4953255;28;20246;-77
2022/03/16 01:02:23;;;;;;;23.37;20.87;;;7.50;99.90;;;;;;4953425;28;20221;-78
2022/03/16 01:04:51;;;;;;;24.83;22.17;;;7.50;99.90;;;;;;4954285;28;20259;-76
2022/03/16 01:07:20;;;;;;;23.77;21.17;;;7.60;99.90;;;;;;4953497;28;20666;-77
2022/03/16 01:09:48;;;;;;;25.90;21.77;;;7.40;99.90;;;;;;4953438;28;20286;-79
2022/03/16 01:12:16;;;;;;;25.77;21.97;;;7.40;99.90;;;;;;4953174;28;20359;-75
2022/03/16 01:14:44;;;;;;;24.23;21.27;;;7.40;99.90;;;;;;4953533;28;20258;-75
2022/03/16 01:17:14;;;;;;;24.73;21.77;;;7.40;99.90;;;;;;4953145;29;20239;-75
2022/03/16 01:19:42;;;;;;;24.83;21.57;;;7.30;99.90;;;;;;4953387;28;20215;-76
2022/03/16 01:22:10;;;;;;;24.30;21.70;;;7.30;99.90;;;;;;4952840;28;20286;-74
2022/03/16 01:24:40;;;;;;;25.67;21.67;;;7.30;99.90;;;;;;4952726;28;20306;-78
2022/03/16 01:27:08;;;;;;;24.33;21.73;;;7.30;99.90;;;;;;4953641;28;20334;-77
2022/03/16 01:29:40;;;;;;;23.87;21.37;;;7.20;99.90;;;;;;4953095;29;20231;-78
2022/03/16 01:32:09;;;;;;;23.67;21.17;;;7.20;99.90;;;;;;4953105;28;20238;-77
2022/03/16 01:34:38;;;;;;;23.37;20.87;;;7.20;99.90;;;;;;4953387;28;20215;-77
2022/03/16 01:37:06;;;;;;;25.97;22.20;;;7.20;99.90;;;;;;4953447;28;20298;-78
2022/03/16 01:39:34;;;;;;;24.97;21.37;;;7.30;99.90;;;;;;4952948;28;20203;-77
2022/03/16 01:42:03;;;;;;;25.17;22.23;;;7.20;99.90;;;;;;4953036;28;20251;-79
2022/03/16 01:44:48;;;;;;;25.53;22.80;;;7.10;99.90;;;;;;4953472;28;20573;-77
2022/03/16 01:47:18;;;;;;;24.67;22.03;;;7.10;99.90;;;;;;4953397;28;20728;-78
2022/03/16 01:49:49;;;;;;;25.77;23.07;;;7.10;99.90;;;;;;4952209;28;20253;-79
2022/03/16 01:52:21;;;;;;;27.47;23.77;;;7.10;99.90;;;;;;4953112;29;20287;-76
2022/03/16 01:54:50;;;;;;;26.63;23.80;;;7.10;99.90;;;;;;4953756;29;20231;-77
2022/03/16 01:57:19;;;;;;;27.73;24.33;;;7.10;99.90;;;;;;4953685;28;20303;-75
2022/03/16 01:59:48;;;;;;;27.77;24.67;;;7.10;99.90;;;;;;4952833;28;20222;-79
2022/03/16 02:02:16;;;;;;;28.30;25.33;;;7.10;99.90;;;;;;4952358;28;20593;-78
2022/03/16 02:04:47;;;;;;;28.77;23.63;;;7.00;99.90;;;;;;4953210;28;20243;-78
2022/03/16 02:07:15;;;;;;;26.87;23.93;;;7.00;99.90;;;;;;4953408;28;20302;-77
2022/03/16 02:09:44;;;;;;;27.27;24.33;;;7.00;99.90;;;;;;4953599;28;20224;-80
2022/03/16 02:12:13;;;;;;;26.93;24.13;;;7.00;99.90;;;;;;4952680;28;20302;-78
2022/03/16 02:14:41;;;;;;;29.60;24.93;;;7.00;99.90;;;;;;4952230;28;20342;-79
2022/03/16 02:17:10;;;;;;;28.50;24.63;;;7.00;99.90;;;;;;4952858;28;20204;-79
2022/03/16 02:19:38;;;;;;;28.67;24.10;;;7.00;99.90;;;;;;4952721;28;20215;-79
2022/03/16 02:22:13;;;;;;;27.73;24.67;;;7.00;99.90;;;;;;4934446;29;20248;-77
2022/03/16 02:24:42;;;;;;;28.63;24.80;;;7.00;99.90;;;;;;4953084;28;20314;-79
2022/03/16 02:27:10;;;;;;;28.40;25.40;;;7.00;99.90;;;;;;4956554;28;20207;-79
2022/03/16 02:29:38;;;;;;;29.60;25.23;;;7.00;99.90;;;;;;4955935;28;20934;-77
2022/03/16 02:32:07;;;;;;;27.23;23.90;;;7.00;99.90;;;;;;4955608;28;20629;-79
2022/03/16 02:34:35;;;;;;;29.03;24.30;;;7.00;99.90;;;;;;4941331;29;20666;-79
2022/03/16 02:37:04;;;;;;;27.60;24.70;;;7.00;99.90;;;;;;4956504;28;20637;-78
2022/03/16 02:39:34;;;;;;;28.50;24.87;;;7.00;99.90;;;;;;4956489;28;20304;-79
2022/03/16 02:42:04;;;;;;;30.00;25.00;;;6.90;99.90;;;;;;4956396;28;20227;-79
2022/03/16 02:44:32;;;;;;;28.93;25.77;;;6.90;99.90;;;;;;4956503;28;20210;-80
2022/03/16 02:47:03;;;;;;;28.33;25.13;;;6.90;99.90;;;;;;4956124;28;20669;-78
2022/03/16 02:49:31;;;;;;;28.13;25.13;;;6.90;99.90;;;;;;4956279;28;20278;-78
2022/03/16 02:52:00;;;;;;;29.27;26.17;;;7.00;99.90;;;;;;4955834;28;20646;-78
2022/03/16 02:54:28;;;;;;;30.63;26.53;;;7.00;99.90;;;;;;4956108;28;20243;-80
2022/03/16 02:56:56;;;;;;;29.63;26.37;;;6.90;99.90;;;;;;4955528;28;20215;-78
2022/03/16 02:59:26;;;;;;;30.67;27.40;;;6.90;99.90;;;;;;4955904;28;20298;-77
2022/03/16 03:01:54;;;;;;;30.70;27.07;;;6.90;99.90;;;;;;4953388;29;20247;-80
2022/03/16 03:04:23;;;;;;;34.43;29.00;;;6.90;99.90;;;;;;4955276;28;20257;-79
2022/03/16 03:06:51;;;;;;;31.30;27.90;;;6.80;99.90;;;;;;4952493;29;20206;-80
2022/03/16 03:09:23;;;;;;;28.23;25.23;;;6.70;99.90;;;;;;4955208;28;20203;-79
2022/03/16 03:11:51;;;;;;;26.37;23.37;;;6.60;99.90;;;;;;4955004;28;20658;-76
2022/03/16 03:14:19;;;;;;;26.67;23.57;;;6.50;99.90;;;;;;4954907;28;20302;-78
2022/03/16 03:16:51;;;;;;;23.77;21.27;;;6.50;99.90;;;;;;4954763;29;20199;-76
2022/03/16 03:19:22;;;;;;;24.00;21.50;;;6.40;99.90;;;;;;4954905;28;20237;-78
2022/03/16 03:21:50;;;;;;;23.83;21.23;;;6.40;99.90;;;;;;4954936;28;20243;-75
2022/03/16 03:24:18;;;;;;;24.93;21.40;;;6.30;99.90;;;;;;4956380;28;20388;-74
2022/03/16 03:26:46;;;;;;;23.67;21.07;;;6.20;99.90;;;;;;4958456;28;20302;-76
2022/03/16 03:29:15;;;;;;;24.17;21.40;;;6.30;99.90;;;;;;4957853;28;20255;-77
2022/03/16 03:31:43;;;;;;;27.17;22.57;;;6.20;99.90;;;;;;4955372;28;20204;-78
2022/03/16 03:34:13;;;;;;;26.83;23.50;;;6.20;99.90;;;;;;4955088;28;20212;-76
2022/03/16 03:36:41;;;;;;;28.63;25.53;;;6.20;99.90;;;;;;4954848;28;20614;-80
2022/03/16 03:39:09;;;;;;;31.87;27.87;;;6.10;99.90;;;;;;4954628;28;20207;-81
2022/03/16 03:41:38;;;;;;;32.30;27.63;;;6.10;99.90;;;;;;4955025;29;20245;-78
2022/03/16 03:44:07;;;;;;;33.17;28.30;;;6.00;99.90;;;;;;4954685;28;20204;-79
2022/03/16 03:46:34;;;;;;;32.17;28.67;;;6.00;99.90;;;;;;4954564;28;20548;-80
2022/03/16 03:49:02;;;;;;;31.47;27.77;;;6.00;99.90;;;;;;4954694;28;20239;-79
2022/03/16 03:51:32;;;;;;;32.10;28.23;;;6.00;99.90;;;;;;4954878;28;20217;-80
2022/03/16 03:54:00;;;;;;;32.33;28.07;;;6.00;99.90;;;;;;4954272;29;20212;-76
2022/03/16 03:56:28;;;;;;;32.17;28.27;;;5.90;99.90;;;;;;4954660;28;20305;-78
2022/03/16 03:58:56;;;;;;;28.93;25.73;;;5.90;99.90;;;;;;4954981;28;20270;-79
2022/03/16 04:01:24;;;;;;;27.93;24.80;;;5.80;99.90;;;;;;4954175;28;20271;-80
2022/03/16 04:03:52;;;;;;;28.47;25.37;;;5.80;99.90;;;;;;4953724;28;20228;-77
2022/03/16 04:06:21;;;;;;;29.17;26.03;;;5.80;99.90;;;;;;4953955;28;20673;-79
2022/03/16 04:08:52;;;;;;;29.47;26.27;;;5.70;99.90;;;;;;4954370;28;20600;-80
2022/03/16 04:11:20;;;;;;;30.00;26.00;;;5.70;99.90;;;;;;4951719;28;20262;-80
2022/03/16 04:13:51;;;;;;;34.57;27.70;;;5.70;99.90;;;;;;4954166;28;20644;-75
2022/03/16 04:16:23;;;;;;;29.57;25.43;;;5.70;99.90;;;;;;4955591;28;20199;-75
2022/03/16 04:18:56;;;;;;;28.63;25.53;;;5.60;99.90;;;;;;4951638;29;20211;-74
2022/03/16 04:21:24;;;;;;;28.77;25.70;;;5.70;99.90;;;;;;4946614;29;20551;-79
2022/03/16 04:23:56;;;;;;;29.23;25.83;;;5.60;99.90;;;;;;4950404;28;20382;-80
2022/03/16 04:26:24;;;;;;;28.90;25.70;;;5.70;99.90;;;;;;4949510;29;20206;-79
2022/03/16 04:28:52;;;;;;;28.97;25.77;;;5.60;99.90;;;;;;4953567;28;20207;-79
2022/03/16 04:31:21;;;;;;;28.63;25.60;;;5.70;99.90;;;;;;4950968;29;20290;-77
2022/03/16 04:33:49;;;;;;;27.40;24.40;;;5.60;99.90;;;;;;4953061;28;20677;-77
2022/03/16 04:36:17;;;;;;;27.17;24.27;;;5.70;99.90;;;;;;4953216;28;20200;-77
2022/03/16 04:38:47;;;;;;;28.33;25.00;;;5.60;99.90;;;;;;4951506;29;20626;-75
2022/03/16 04:41:16;;;;;;;28.27;25.13;;;5.70;99.90;;;;;;4953283;28;20202;-80
2022/03/16 04:43:47;;;;;;;27.43;24.13;;;5.70;99.90;;;;;;4950163;28;20247;-79
2022/03/16 04:46:15;;;;;;;27.00;24.10;;;5.60;99.90;;;;;;4944427;28;20815;-79
2022/03/16 04:48:43;;;;;;;28.47;24.57;;;5.60;99.90;;;;;;4953568;28;20203;-78
2022/03/16 04:51:11;;;;;;;27.27;24.13;;;5.60;99.90;;;;;;4950701;28;20212;-78
2022/03/16 04:53:39;;;;;;;27.47;24.47;;;5.60;99.90;;;;;;4948780;28;20295;-79
2022/03/16 04:56:08;;;;;;;26.43;23.50;;;5.60;99.90;;;;;;4953486;28;20684;-78
2022/03/16 04:58:38;;;;;;;27.03;24.17;;;5.60;99.90;;;;;;4953537;28;20250;-77
2022/03/16 05:01:06;;;;;;;27.57;24.00;;;5.40;99.90;;;;;;4953299;28;20250;-75
2022/03/16 05:03:34;;;;;;;30.27;24.90;;;5.50;99.90;;;;;;4951741;28;20267;-75
2022/03/16 05:06:04;;;;;;;26.73;23.83;;;5.50;99.90;;;;;;4947196;29;20211;-75
2022/03/16 05:08:36;;;;;;;28.27;24.90;;;5.50;99.90;;;;;;4952619;28;20251;-78
2022/03/16 05:11:05;;;;;;;28.67;24.90;;;5.40;99.90;;;;;;4952976;28;20250;-75
2022/03/16 05:13:33;;;;;;;27.33;24.10;;;5.50;99.90;;;;;;4954215;29;20298;-79
2022/03/16 05:16:03;;;;;;;28.23;25.10;;;5.40;99.90;;;;;;4953040;28;20311;-78
2022/03/16 05:18:34;;;;;;;29.60;25.73;;;5.40;99.90;;;;;;4953225;28;20216;-77
2022/03/16 05:21:06;;;;;;;27.90;24.90;;;5.50;99.90;;;;;;4953170;28;20215;-80
2022/03/16 05:23:35;;;;;;;26.87;23.80;;;5.50;99.90;;;;;;4953572;29;20215;-79
2022/03/16 05:26:03;;;;;;;26.80;23.50;;;5.50;99.90;;;;;;4951812;29;20323;-79
2022/03/16 05:28:31;;;;;;;27.17;24.27;;;5.50;99.90;;;;;;4947000;29;20216;-78
2022/03/16 05:30:59;;;;;;;26.97;23.37;;;5.60;99.90;;;;;;4952729;28;20623;-80
2022/03/16 05:33:28;;;;;;;28.27;24.37;;;5.60;99.90;;;;;;4953065;28;20298;-79
2022/03/16 05:35:56;;;;;;;31.33;25.33;;;5.60;99.90;;;;;;4952817;28;20650;-81
2022/03/16 05:38:28;;;;;;;28.93;24.53;;;5.60;99.90;;;;;;4953323;28;20274;-78
2022/03/16 05:40:56;;;;;;;28.37;25.07;;;5.60;99.90;;;;;;4941879;29;20223;-79
2022/03/16 05:43:24;;;;;;;28.30;25.23;;;5.60;99.90;;;;;;4945325;28;20315;-77
2022/03/16 05:45:52;;;;;;;29.73;26.57;;;5.50;99.90;;;;;;4952706;29;20615;-78
2022/03/16 05:48:20;;;;;;;31.17;26.10;;;5.50;99.90;;;;;;4952664;28;20638;-78
2022/03/16 05:50:53;;;;;;;29.77;25.07;;;5.50;99.90;;;;;;4945037;28;20626;-77
2022/03/16 05:53:21;;;;;;;30.77;26.57;;;5.50;99.90;;;;;;4952245;29;20203;-80
2022/03/16 05:55:51;;;;;;;28.03;25.03;;;5.50;99.90;;;;;;4952284;28;20250;-81
2022/03/16 05:58:21;;;;;;;28.20;24.53;;;5.50;99.90;;;;;;4951229;28;20792;-79
2022/03/16 06:00:49;;;;;;;28.90;25.10;;;5.50;99.90;;;;;;4951935;28;20214;-78
2022/03/16 06:03:17;;;;;;;30.83;26.13;;;5.40;99.90;;;;;;4956719;28;20646;-80
2022/03/16 06:05:46;;;;;;;27.43;24.60;;;5.40;99.90;;;;;;4956362;28;20207;-79
2022/03/16 06:08:15;;;;;;;35.00;25.60;;;5.50;99.90;;;;;;4958345;28;20278;-77
2022/03/16 06:10:44;;;;;;;28.10;25.20;;;5.50;99.90;;;;;;4959100;28;20290;-81
2022/03/16 06:13:12;;;;;;;31.30;27.00;;;5.50;99.90;;;;;;4956903;28;20237;-77
2022/03/16 06:15:41;;;;;;;29.97;26.57;;;5.60;99.90;;;;;;4955811;28;20254;-79
2022/03/16 06:18:12;;;;;;;28.50;25.40;;;5.60;99.90;;;;;;4957321;28;20206;-80
2022/03/16 06:20:41;;;;;;;30.33;25.43;;;5.60;99.90;;;;;;4957777;28;20222;-76
2022/03/16 06:23:09;;;;;;;26.00;23.30;;;5.70;99.90;;;;;;4957831;28;20701;-81
2022/03/16 06:25:42;;;;;;;27.33;24.23;;;5.60;99.90;;;;;;4966391;28;20212;-76
2022/03/16 06:28:10;;;;;;;27.97;24.17;;;5.70;99.90;;;;;;4967083;28;20588;-77
2022/03/16 06:30:40;;;;;;;28.60;25.60;;;5.70;99.90;;;;;;4960244;29;20226;-78
2022/03/16 06:33:08;;;;;;;27.00;24.13;;;5.80;99.90;;;;;;4969549;28;20208;-79
2022/03/16 06:35:39;;;;;;;26.70;23.87;;;5.80;99.90;;;;;;4968643;28;20219;-76
2022/03/16 06:38:07;;;;;;;27.10;23.37;;;5.80;99.90;;;;;;4961240;28;20239;-79
2022/03/16 06:40:36;;;;;;;29.33;24.23;;;5.80;99.90;;;;;;4958288;28;20303;-77
2022/03/16 06:43:05;;;;;;;27.03;24.13;;;5.80;99.90;;;;;;4958829;28;20254;-78
2022/03/16 06:45:34;;;;;;;26.33;23.23;;;5.90;99.90;;;;;;4957677;28;20553;-75
2022/03/16 06:48:04;;;;;;;26.37;23.50;;;6.00;99.90;;;;;;4961842;29;20291;-73
2022/03/16 06:50:32;;;;;;;25.77;23.07;;;6.00;99.90;;;;;;4964501;28;20212;-79
2022/03/16 06:53:00;;;;;;;26.23;23.53;;;6.00;99.90;;;;;;4948291;29;20216;-74
2022/03/16 06:55:29;;;;;;;25.73;22.93;;;6.10;99.90;;;;;;4962758;29;20196;-75
2022/03/16 06:57:58;;;;;;;23.50;21.00;;;6.20;99.90;;;;;;4962689;28;20226;-75
2022/03/16 07:00:32;;;;;;;23.50;20.90;;;6.20;99.90;;;;;;4962953;28;20223;-77
2022/03/16 07:03:03;;;;;;;24.53;21.90;;;6.30;99.90;;;;;;4963963;28;20215;-77
2022/03/16 07:05:36;;;;;;;23.03;20.63;;;6.30;99.90;;;;;;4964130;28;20220;-75
2022/03/16 07:08:07;;;;;;;23.97;20.57;;;6.30;99.90;;;;;;4964215;28;20290;-74
2022/03/16 07:10:37;;;;;;;24.97;21.00;;;6.30;99.90;;;;;;4963297;28;20231;-75
2022/03/16 07:13:11;;;;;;;23.00;20.30;;;6.30;99.90;;;;;;4964149;28;20199;-75
2022/03/16 07:15:43;;;;;;;22.63;19.77;;;6.30;99.90;;;;;;4959211;28;20219;-76
2022/03/16 07:18:12;;;;;;;24.07;18.87;;;6.20;99.90;;;;;;4963584;29;20294;-76
2022/03/16 07:20:41;;;;;;;20.83;16.33;;;6.20;99.90;;;;;;4962021;28;20250;-74
2022/03/16 07:23:11;;;;;;;16.57;14.87;;;6.30;99.90;;;;;;4957629;29;20230;-74
2022/03/16 07:25:44;;;;;;;16.47;14.77;;;6.20;99.90;;;;;;4957267;28;20298;-74
2022/03/16 07:28:12;;;;;;;15.63;14.13;;;6.30;99.90;;;;;;4956026;28;20214;-77
2022/03/16 07:30:42;;;;;;;15.03;13.40;;;6.30;99.90;;;;;;4959996;28;20234;-75
2022/03/16 07:33:12;;;;;;;14.53;13.03;;;6.30;99.90;;;;;;4974823;28;20263;-73
2022/03/16 07:35:41;;;;;;;15.97;14.23;;;6.30;99.90;;;;;;4973227;28;20222;-75
2022/03/16 07:38:10;;;;;;;15.27;13.67;;;6.40;99.90;;;;;;4974406;28;20223;-78
2022/03/16 07:40:41;;;;;;;14.23;12.83;;;6.40;99.90;;;;;;4972693;29;20211;-76
2022/03/16 07:43:10;;;;;;;15.17;13.40;;;6.50;99.90;;;;;;4972959;28;20204;-74
2022/03/16 07:45:39;;;;;;;16.10;14.03;;;6.50;99.90;;;;;;4972088;28;20238;-76
2022/03/16 07:48:10;;;;;;;14.30;12.90;;;6.40;99.90;;;;;;4963419;28;20283;-75
2022/03/16 07:50:40;;;;;;;14.73;13.23;;;6.40;99.90;;;;;;4963100;28;20216;-75
2022/03/16 07:53:08;;;;;;;15.30;13.77;;;6.40;99.90;;;;;;4959424;28;20231;-74
2022/03/16 07:55:37;;;;;;;15.77;12.70;;;6.40;99.90;;;;;;4957397;28;20268;-73
2022/03/16 07:58:05;;;;;;;15.83;14.30;;;6.50;99.90;;;;;;4957090;28;20692;-75
2022/03/16 08:00:34;;;;;;;16.00;14.00;;;6.50;99.90;;;;;;4961360;28;20312;-75
2022/03/16 08:09:36;;;;;;;15.97;13.57;;;6.60;99.90;;;;;;4968066;29;20211;-75
2022/03/16 08:12:29;;;;;;;15.57;13.83;;;6.70;99.90;;;;;;4971645;29;20208;-76
2022/03/16 08:15:00;;;;;;;14.60;13.00;;;6.80;99.90;;;;;;4971604;28;20200;-76
2022/03/16 08:17:29;;;;;;;14.37;12.87;;;6.80;99.90;;;;;;4967161;28;20196;-79
2022/03/16 08:20:09;;;;;;;14.37;12.87;;;7.00;99.90;;;;;;4949505;29;20299;-78
2022/03/16 08:22:38;;;;;;;15.00;13.50;;;7.20;99.90;;;;;;4966792;28;20200;-76
2022/03/16 08:28:12;;;;;;;14.60;12.83;;;7.30;99.90;;;;;;4969372;28;20215;-76
2022/03/16 08:31:08;;;;;;;13.63;12.23;;;7.30;99.90;;;;;;4961462;28;20259;-73
2022/03/16 08:33:38;;;;;;;14.00;12.47;;;7.20;99.90;;;;;;4961495;29;20238;-74
2022/03/16 08:36:32;;;;;;;14.30;12.87;;;7.30;99.90;;;;;;4968465;28;20223;-77
2022/03/16 08:39:06;;;;;;;14.17;12.77;;;7.50;99.90;;;;;;4974117;28;20310;-76
2022/03/16 08:41:46;;;;;;;15.50;13.53;;;7.80;99.90;;;;;;4966951;28;20238;-75
2022/03/16 08:44:22;;;;;;;14.27;12.23;;;7.90;99.90;;;;;;4968299;28;20206;-75
2022/03/16 08:46:54;;;;;;;12.63;11.33;;;8.00;99.90;;;;;;4967988;28;20200;-75
2022/03/16 08:52:15;;;;;;;13.20;11.90;;;8.70;99.90;;;;;;4986287;28;20215;-74
2022/03/16 08:57:43;;;;;;;13.90;11.97;;;9.20;99.90;;;;;;4948959;29;20240;-74
2022/03/16 09:00:23;;;;;;;14.33;12.77;;;9.30;99.90;;;;;;4948898;29;20260;-78
2022/03/16 09:03:10;;;;;;;13.50;12.10;;;9.50;99.90;;;;;;4950032;29;20219;-75
2022/03/16 09:11:35;;;;;;;13.40;12.10;;;10.30;99.90;;;;;;4965748;28;20214;-75
2022/03/16 09:14:30;;;;;;;12.67;11.47;;;10.30;99.90;;;;;;4968045;29;20225;-77
2022/03/16 09:17:02;;;;;;;13.03;11.73;;;10.80;99.90;;;;;;4964722;28;20226;-75
2022/03/16 09:19:33;;;;;;;13.83;11.97;;;11.10;99.90;;;;;;4955540;28;20234;-77
2022/03/16 09:22:02;;;;;;;13.07;11.80;;;11.70;99.90;;;;;;4960186;29;20219;-76
2022/03/16 09:24:32;;;;;;;13.93;12.53;;;11.40;99.90;;;;;;4949889;29;20211;-75
2022/03/16 09:27:01;;;;;;;13.43;12.03;;;11.80;99.90;;;;;;4954039;28;20308;-75
2022/03/16 09:29:31;;;;;;;13.70;12.27;;;11.80;99.90;;;;;;4940332;29;20212;-75
2022/03/16 09:32:07;;;;;;;13.83;12.43;;;11.60;99.90;;;;;;4956481;29;20279;-78
2022/03/16 09:34:37;;;;;;;13.53;12.13;;;12.20;99.90;;;;;;4959748;28;20298;-78
2022/03/16 09:37:05;;;;;;;13.63;12.10;;;11.90;99.90;;;;;;4954611;29;20271;-76
2022/03/16 09:39:34;;;;;;;13.63;12.37;;;11.90;99.90;;;;;;4957624;28;20705;-75
2022/03/16 09:42:04;;;;;;;14.00;12.50;;;11.50;99.90;;;;;;4958382;29;20358;-76
2022/03/16 09:44:33;;;;;;;14.27;12.90;;;11.70;99.90;;;;;;4958766;28;20266;-77
2022/03/16 09:47:09;;;;;;;14.20;12.90;;;11.30;99.90;;;;;;4958585;29;20567;-77
2022/03/16 09:49:39;;;;;;;13.87;12.47;;;11.40;99.90;;;;;;4958120;28;20648;-76
2022/03/16 09:52:09;;;;;;;14.27;12.83;;;11.30;99.90;;;;;;4959757;28;20251;-75
2022/03/16 09:54:38;;;;;;;15.03;13.40;;;11.00;99.90;;;;;;4960661;28;20206;-76
2022/03/16 09:57:07;;;;;;;14.70;13.33;;;11.20;99.90;;;;;;4958269;28;20745;-77
2022/03/16 09:59:38;;;;;;;15.97;14.23;;;11.20;99.90;;;;;;4955547;28;20733;-75
2022/03/16 10:02:09;;;;;;;15.10;13.57;;;11.10;99.90;;;;;;4945918;29;20219;-74
2022/03/16 10:04:41;;;;;;;14.27;12.90;;;11.00;99.90;;;;;;4964013;28;20212;-75
2022/03/16 10:07:11;;;;;;;15.17;13.67;;;11.10;99.90;;;;;;4965874;28;20236;-76
2022/03/16 10:15:18;;;;;;;13.63;12.40;;;12.30;99.90;;;;;;4970447;28;20641;-77
2022/03/16 10:17:49;;;;;;;14.33;12.93;;;12.30;99.90;;;;;;4961444;28;20231;-76
2022/03/16 10:20:23;;;;;;;14.03;12.67;;;12.30;99.90;;;;;;4971763;28;20250;-75
2022/03/16 10:22:58;;;;;;;13.77;12.47;;;12.90;99.90;;;;;;4972695;28;20234;-77
2022/03/16 10:25:30;;;;;;;14.87;13.37;;;12.80;99.90;;;;;;4969534;28;20228;-76
2022/03/16 10:28:10;;;;;;;14.97;13.47;;;12.40;99.90;;;;;;4968359;28;20207;-76
2022/03/16 10:30:58;;;;;;;14.00;12.60;;;12.40;99.90;;;;;;4966797;28;20203;-75
2022/03/16 10:33:29;;;;;;;15.13;13.67;;;12.50;99.90;;;;;;4968197;28;20195;-74
2022/03/16 10:36:00;;;;;;;15.73;14.10;;;12.30;99.90;;;;;;4970423;28;20230;-76
2022/03/16 10:38:37;;;;;;;14.60;13.20;;;12.10;99.90;;;;;;4966879;28;20218;-75
2022/03/16 10:47:03;;;;;;;15.43;13.93;;;11.80;99.90;;;;;;4941310;29;20232;-76
2022/03/16 10:49:34;;;;;;;15.57;14.07;;;11.60;99.90;;;;;;4941184;29;20618;-74
2022/03/16 10:52:05;;;;;;;17.33;15.03;;;11.70;99.90;;;;;;4950637;28;20214;-74
2022/03/16 10:54:37;;;;;;;15.97;14.37;;;11.70;99.90;;;;;;4957535;29;20310;-78
2022/03/16 10:57:10;;;;;;;16.00;14.50;;;12.00;99.90;;;;;;4956281;29;20191;-76
2022/03/16 10:59:48;;;;;;;15.53;14.03;;;12.10;99.90;;;;;;4956795;28;20279;-79
2022/03/16 11:02:20;;;;;;;15.90;14.40;;;12.90;99.90;;;;;;4957520;28;20199;-80
2022/03/16 11:04:52;;;;;;;15.40;14.00;;;13.40;99.90;;;;;;4958030;28;20203;-78
2022/03/16 11:07:20;;;;;;;15.93;14.53;;;13.20;99.90;;;;;;4956010;28;20227;-78
2022/03/16 11:09:49;;;;;;;14.03;12.70;;;13.30;99.90;;;;;;4948235;28;20270;-75
2022/03/16 11:15:12;;;;;;;14.57;13.27;;;14.70;99.90;;;;;;4994411;28;20233;-77
2022/03/16 11:17:42;;;;;;;14.47;13.17;;;15.10;99.90;;;;;;4993005;28;20205;-76
2022/03/16 11:20:14;;;;;;;14.97;13.67;;;14.80;99.90;;;;;;4995416;28;20214;-76
2022/03/16 11:24:15;;;;;;;14.57;13.10;;;15.40;99.90;;;;;;4990754;28;20257;-78
2022/03/16 11:25:48;;;;;;;14.07;12.77;;;15.60;99.50;;;;;;4991264;28;20270;-76
2022/03/16 11:28:24;;;;;;;14.23;12.93;;;16.00;99.90;;;;;;4993378;28;20580;-77
2022/03/16 11:30:55;;;;;;;14.13;12.93;;;17.20;98.50;;;;;;4993909;28;20922;-75
2022/03/16 11:33:26;;;;;;;14.20;12.90;;;17.50;95.90;;;;;;4990853;28;20272;-77
2022/03/16 11:35:56;;;;;;;14.40;13.10;;;17.10;95.40;;;;;;4985602;28;20203;-73
2022/03/16 11:38:25;;;;;;;14.20;12.90;;;16.80;96.10;;;;;;4994483;28;20230;-75
2022/03/16 11:40:53;;;;;;;14.80;13.23;;;16.60;94.70;;;;;;4994678;28;20887;-77
2022/03/16 11:43:23;;;;;;;14.00;12.70;;;15.90;95.40;;;;;;5015797;28;20220;-75
2022/03/16 11:45:54;;;;;;;14.93;13.53;;;16.20;94.80;;;;;;5015743;28;20214;-74
2022/03/16 11:48:48;;;;;;;15.77;14.30;;;15.50;95.00;;;;;;5005433;28;20190;-76
2022/03/16 11:51:24;;;;;;;15.90;14.50;;;14.80;96.40;;;;;;5015442;28;20190;-74
2022/03/16 11:54:09;;;;;;;15.40;14.10;;;14.20;97.50;;;;;;5017503;28;20202;-74
2022/03/16 11:56:57;;;;;;;14.60;13.30;;;14.60;99.00;;;;;;5000284;28;20301;-74
2022/03/16 11:59:31;;;;;;;15.37;13.87;;;14.60;98.20;;;;;;4998251;28;20603;-76
2022/03/16 12:02:10;;;;;;;15.63;14.23;;;14.80;99.00;;;;;;4992804;28;20202;-74
2022/03/16 12:04:42;;;;;;;17.57;15.87;;;15.10;97.60;;;;;;4991926;28;20217;-74
2022/03/16 12:07:12;;;;;;;15.70;14.27;;;14.70;99.10;;;;;;4977552;28;20285;-74
2022/03/16 12:09:45;;;;;;;16.23;14.83;;;15.00;99.10;;;;;;4977865;28;20274;-76
2022/03/16 12:15:25;;;;;;;16.43;15.03;;;14.80;98.30;;;;;;4974981;28;20246;-75
2022/03/16 12:18:23;;;;;;;16.67;15.03;;;15.00;97.50;;;;;;4989065;28;20257;-77
2022/03/16 12:21:03;;;;;;;17.60;16.03;;;14.40;98.60;;;;;;4993656;28;20260;-78
2022/03/16 12:23:58;;;;;;;18.70;16.87;;;13.40;99.80;;;;;;4994185;28;20615;-78
2022/03/16 12:26:30;;;;;;;18.17;16.47;;;13.00;99.90;;;;;;4997587;28;20221;-78
2022/03/16 12:29:03;;;;;;;19.10;17.20;;;12.70;99.90;;;;;;4995760;28;20206;-75
2022/03/16 12:34:25;;;;;;;18.53;16.73;;;13.00;99.90;;;;;;4987490;28;20207;-79
2022/03/16 12:37:01;;;;;;;19.60;17.70;;;12.70;99.90;;;;;;5003390;28;20559;-76
2022/03/16 12:39:31;;;;;;;18.83;16.93;;;12.70;99.90;;;;;;5005497;28;20190;-76
2022/03/16 12:48:08;;;;;;;19.60;17.77;;;13.30;99.90;;;;;;4990698;28;20229;-76
2022/03/16 12:50:43;;;;;;;20.53;18.43;;;13.20;99.90;;;;;;5004556;28;20285;-77
2022/03/16 12:53:15;;;;;;;19.37;17.53;;;12.80;99.90;;;;;;5003609;28;20218;-79
2022/03/16 12:55:56;;;;;;;20.30;18.33;;;13.00;99.90;;;;;;5004000;28;20206;-75
2022/03/16 12:58:26;;;;;;;19.13;17.33;;;13.20;99.90;;;;;;5002285;28;20221;-74
2022/03/16 13:00:59;;;;;;;19.93;18.03;;;13.60;99.90;;;;;;5004382;28;20253;-74
2022/03/16 13:03:27;;;;;;;19.70;17.87;;;13.30;99.90;;;;;;5003775;28;20191;-76
2022/03/16 13:05:57;;;;;;;19.17;17.27;;;13.10;99.90;;;;;;5003388;28;20237;-80
2022/03/16 13:08:31;;;;;;;20.60;18.70;;;12.80;99.90;;;;;;5002740;28;20296;-79
2022/03/16 13:11:18;;;;;;;19.93;18.13;;;12.40;99.90;;;;;;5003585;28;20338;-77
2022/03/16 13:13:50;;;;;;;19.27;17.27;;;12.70;99.90;;;;;;5002262;28;20220;-78
2022/03/16 13:16:39;;;;;;;17.63;16.03;;;12.80;99.90;;;;;;5001020;28;20206;-76
2022/03/16 13:19:09;;;;;;;18.67;16.77;;;12.80;99.90;;;;;;5003023;28;20203;-74
2022/03/16 13:21:39;;;;;;;19.33;17.43;;;12.80;99.90;;;;;;5001818;28;20214;-78
2022/03/16 13:24:11;;;;;;;18.10;16.40;;;12.50;99.90;;;;;;4999586;28;20257;-79
2022/03/16 13:26:41;;;;;;;18.37;16.70;;;12.30;99.90;;;;;;4998611;28;20279;-77
2022/03/16 13:29:12;;;;;;;18.37;16.57;;;12.10;99.90;;;;;;5001292;28;20241;-78
2022/03/16 13:31:44;;;;;;;18.20;16.50;;;12.00;99.90;;;;;;5002815;28;20218;-76
2022/03/16 13:34:13;;;;;;;18.23;16.53;;;12.00;99.90;;;;;;5003113;28;20277;-76
2022/03/16 13:36:44;;;;;;;18.70;17.00;;;12.20;99.90;;;;;;4994577;28;20272;-76
2022/03/16 13:39:19;;;;;;;18.10;16.30;;;12.60;99.90;;;;;;4994183;28;20194;-76